Quetta, Pakistan
Current Conditions -  °F | °C
As of 2:55 PM on Saturday 29 Nov 2014 (Local Time) from KQHN Reporting Station
Broken Clouds Broken Clouds  
Wind Chill: 70°   Ceiling: 20000
Heat Index: 70°   Visibility: 6mi
Dew Point: 28°   Wind: 7mph
Humidity: 21%   Direction: NA
Pressure: 30"   Gusts: NA
Location:  30.21°N, 67.02°E
Report Text: KQHN 290955Z VRB06KT 9999 FEW080 SCT150 BKN200 21/M02 A3000 RMK SLP111 Q1016 DA4752
Loading
Personal Weather Stations






























Interactive Weather Map New forecast layout! Learn more

10-Day Weather Forecast

Advertisements
Track Severe Weather on mobile